sensor_id;sensor_type;location;lat;lon;timestamp;P1;durP1;ratioP1;P2;durP2;ratioP2
52878;SDS011;38747;53.140;6.498;2022-11-20T00:01:22;22.70;;;13.15;;
52878;SDS011;38747;53.140;6.498;2022-11-20T00:03:50;21.10;;;11.68;;
52878;SDS011;38747;53.140;6.498;2022-11-20T00:06:17;20.87;;;11.17;;
52878;SDS011;38747;53.140;6.498;2022-11-20T00:08:45;22.30;;;11.88;;
52878;SDS011;38747;53.140;6.498;2022-11-20T00:11:15;21.50;;;11.85;;
52878;SDS011;38747;53.140;6.498;2022-11-20T00:13:46;22.95;;;12.05;;
52878;SDS011;38747;53.140;6.498;2022-11-20T00:16:15;22.92;;;12.40;;
52878;SDS011;38747;53.140;6.498;2022-11-20T00:18:42;24.13;;;12.90;;
52878;SDS011;38747;53.140;6.498;2022-11-20T00:21:13;22.17;;;12.13;;
52878;SDS011;38747;53.140;6.498;2022-11-20T00:23:41;19.90;;;10.95;;
52878;SDS011;38747;53.140;6.498;2022-11-20T00:26:08;22.40;;;11.45;;
52878;SDS011;38747;53.140;6.498;2022-11-20T00:28:35;21.55;;;11.80;;
52878;SDS011;38747;53.140;6.498;2022-11-20T00:31:04;21.77;;;11.97;;
52878;SDS011;38747;53.140;6.498;2022-11-20T00:33:40;21.88;;;11.90;;
52878;SDS011;38747;53.140;6.498;2022-11-20T00:36:08;18.60;;;10.68;;
52878;SDS011;38747;53.140;6.498;2022-11-20T00:38:35;22.27;;;11.33;;
52878;SDS011;38747;53.140;6.498;2022-11-20T00:41:03;23.52;;;11.75;;
52878;SDS011;38747;53.140;6.498;2022-11-20T00:43:31;21.48;;;11.65;;
52878;SDS011;38747;53.140;6.498;2022-11-20T00:46:04;21.63;;;12.00;;
52878;SDS011;38747;53.140;6.498;2022-11-20T00:48:32;22.93;;;12.30;;
52878;SDS011;38747;53.140;6.498;2022-11-20T00:50:58;22.77;;;12.27;;
52878;SDS011;38747;53.140;6.498;2022-11-20T00:53:23;22.97;;;12.53;;
52878;SDS011;38747;53.140;6.498;2022-11-20T00:55:56;21.65;;;12.32;;
52878;SDS011;38747;53.140;6.498;2022-11-20T00:58:24;21.20;;;12.02;;
52878;SDS011;38747;53.140;6.498;2022-11-20T01:00:50;24.55;;;11.82;;
52878;SDS011;38747;53.140;6.498;2022-11-20T01:03:17;24.05;;;12.38;;
52878;SDS011;38747;53.140;6.498;2022-11-20T01:05:43;20.17;;;11.43;;
52878;SDS011;38747;53.140;6.498;2022-11-20T01:08:09;20.00;;;11.25;;
52878;SDS011;38747;53.140;6.498;2022-11-20T01:10:35;21.38;;;11.85;;
52878;SDS011;38747;53.140;6.498;2022-11-20T01:13:01;20.30;;;11.50;;
52878;SDS011;38747;53.140;6.498;2022-11-20T01:15:45;21.58;;;11.65;;
52878;SDS011;38747;53.140;6.498;2022-11-20T01:18:11;21.47;;;12.17;;
52878;SDS011;38747;53.140;6.498;2022-11-20T01:20:36;24.50;;;12.23;;
52878;SDS011;38747;53.140;6.498;2022-11-20T01:23:02;21.42;;;11.43;;
52878;SDS011;38747;53.140;6.498;2022-11-20T01:25:28;21.00;;;10.63;;
52878;SDS011;38747;53.140;6.498;2022-11-20T01:27:54;18.67;;;9.80;;
52878;SDS011;38747;53.140;6.498;2022-11-20T01:30:20;19.90;;;9.93;;
52878;SDS011;38747;53.140;6.498;2022-11-20T01:32:46;15.13;;;9.00;;
52878;SDS011;38747;53.140;6.498;2022-11-20T01:35:11;17.70;;;9.48;;
52878;SDS011;38747;53.140;6.498;2022-11-20T01:37:37;17.80;;;9.17;;
52878;SDS011;38747;53.140;6.498;2022-11-20T01:40:03;17.38;;;9.35;;
52878;SDS011;38747;53.140;6.498;2022-11-20T01:42:29;18.95;;;9.40;;
52878;SDS011;38747;53.140;6.498;2022-11-20T01:48:15;16.48;;;9.20;;
52878;SDS011;38747;53.140;6.498;2022-11-20T01:50:43;17.33;;;8.77;;
52878;SDS011;38747;53.140;6.498;2022-11-20T01:53:10;16.75;;;8.65;;
52878;SDS011;38747;53.140;6.498;2022-11-20T01:55:41;17.25;;;8.98;;
52878;SDS011;38747;53.140;6.498;2022-11-20T01:58:11;18.37;;;8.53;;
52878;SDS011;38747;53.140;6.498;2022-11-20T02:00:38;17.17;;;8.98;;
52878;SDS011;38747;53.140;6.498;2022-11-20T02:03:09;17.58;;;8.80;;
52878;SDS011;38747;53.140;6.498;2022-11-20T02:05:43;15.70;;;8.75;;
52878;SDS011;38747;53.140;6.498;2022-11-20T02:08:19;18.60;;;8.90;;
52878;SDS011;38747;53.140;6.498;2022-11-20T02:10:45;17.20;;;8.70;;
52878;SDS011;38747;53.140;6.498;2022-11-20T02:13:10;18.45;;;8.85;;
52878;SDS011;38747;53.140;6.498;2022-11-20T02:15:54;17.77;;;8.77;;
52878;SDS011;38747;53.140;6.498;2022-11-20T02:18:20;17.07;;;9.20;;
52878;SDS011;38747;53.140;6.498;2022-11-20T02:20:48;16.30;;;9.05;;
52878;SDS011;38747;53.140;6.498;2022-11-20T02:23:27;16.15;;;8.50;;
52878;SDS011;38747;53.140;6.498;2022-11-20T02:26:08;17.30;;;9.63;;
52878;SDS011;38747;53.140;6.498;2022-11-20T02:28:37;17.92;;;9.57;;
52878;SDS011;38747;53.140;6.498;2022-11-20T02:31:02;16.97;;;9.60;;
52878;SDS011;38747;53.140;6.498;2022-11-20T02:33:28;18.65;;;9.48;;
52878;SDS011;38747;53.140;6.498;2022-11-20T02:35:54;16.57;;;8.50;;
52878;SDS011;38747;53.140;6.498;2022-11-20T02:38:19;18.37;;;9.23;;
52878;SDS011;38747;53.140;6.498;2022-11-20T02:40:45;17.60;;;8.85;;
52878;SDS011;38747;53.140;6.498;2022-11-20T02:43:11;17.23;;;8.90;;
52878;SDS011;38747;53.140;6.498;2022-11-20T02:45:37;17.30;;;8.77;;
52878;SDS011;38747;53.140;6.498;2022-11-20T02:48:03;17.67;;;8.73;;
52878;SDS011;38747;53.140;6.498;2022-11-20T02:50:29;16.63;;;8.20;;
52878;SDS011;38747;53.140;6.498;2022-11-20T02:52:54;17.63;;;8.75;;
52878;SDS011;38747;53.140;6.498;2022-11-20T02:55:20;18.33;;;9.37;;
52878;SDS011;38747;53.140;6.498;2022-11-20T02:57:45;16.80;;;8.85;;
52878;SDS011;38747;53.140;6.498;2022-11-20T03:00:11;17.50;;;8.37;;
52878;SDS011;38747;53.140;6.498;2022-11-20T03:02:37;19.20;;;9.32;;
52878;SDS011;38747;53.140;6.498;2022-11-20T03:05:03;17.23;;;8.70;;
52878;SDS011;38747;53.140;6.498;2022-11-20T03:07:29;17.10;;;9.10;;
52878;SDS011;38747;53.140;6.498;2022-11-20T03:09:54;17.03;;;9.60;;
52878;SDS011;38747;53.140;6.498;2022-11-20T03:12:20;16.20;;;8.60;;
52878;SDS011;38747;53.140;6.498;2022-11-20T03:14:45;17.77;;;9.17;;
52878;SDS011;38747;53.140;6.498;2022-11-20T03:17:11;18.17;;;9.27;;
52878;SDS011;38747;53.140;6.498;2022-11-20T03:19:36;17.50;;;8.97;;
52878;SDS011;38747;53.140;6.498;2022-11-20T03:22:02;17.90;;;9.25;;
52878;SDS011;38747;53.140;6.498;2022-11-20T03:24:28;16.17;;;8.17;;
52878;SDS011;38747;53.140;6.498;2022-11-20T03:26:53;18.97;;;9.37;;
52878;SDS011;38747;53.140;6.498;2022-11-20T03:29:19;17.58;;;9.13;;
52878;SDS011;38747;53.140;6.498;2022-11-20T03:31:45;16.37;;;8.60;;
52878;SDS011;38747;53.140;6.498;2022-11-20T03:34:11;17.00;;;8.68;;
52878;SDS011;38747;53.140;6.498;2022-11-20T03:36:38;16.63;;;8.60;;
52878;SDS011;38747;53.140;6.498;2022-11-20T03:39:04;18.02;;;8.90;;
52878;SDS011;38747;53.140;6.498;2022-11-20T03:41:30;16.20;;;8.53;;
52878;SDS011;38747;53.140;6.498;2022-11-20T03:44:01;17.52;;;9.20;;
52878;SDS011;38747;53.140;6.498;2022-11-20T03:46:29;16.70;;;8.55;;
52878;SDS011;38747;53.140;6.498;2022-11-20T03:48:55;16.48;;;8.23;;
52878;SDS011;38747;53.140;6.498;2022-11-20T03:51:25;16.07;;;8.67;;
52878;SDS011;38747;53.140;6.498;2022-11-20T03:53:53;14.82;;;7.80;;
52878;SDS011;38747;53.140;6.498;2022-11-20T03:56:24;16.58;;;8.50;;
52878;SDS011;38747;53.140;6.498;2022-11-20T03:58:51;15.13;;;8.23;;
52878;SDS011;38747;53.140;6.498;2022-11-20T04:01:18;14.90;;;8.30;;
52878;SDS011;38747;53.140;6.498;2022-11-20T04:03:51;15.27;;;8.00;;
52878;SDS011;38747;53.140;6.498;2022-11-20T04:06:18;15.60;;;7.80;;
52878;SDS011;38747;53.140;6.498;2022-11-20T04:08:49;15.07;;;8.00;;
52878;SDS011;38747;53.140;6.498;2022-11-20T04:11:19;15.03;;;8.00;;
52878;SDS011;38747;53.140;6.498;2022-11-20T04:13:47;16.50;;;7.78;;
52878;SDS011;38747;53.140;6.498;2022-11-20T04:16:14;13.68;;;7.15;;
52878;SDS011;38747;53.140;6.498;2022-11-20T04:18:40;13.70;;;7.60;;
52878;SDS011;38747;53.140;6.498;2022-11-20T04:21:06;14.13;;;7.37;;
52878;SDS011;38747;53.140;6.498;2022-11-20T04:23:32;18.83;;;7.82;;
52878;SDS011;38747;53.140;6.498;2022-11-20T04:26:03;15.68;;;7.55;;
52878;SDS011;38747;53.140;6.498;2022-11-20T04:28:30;15.80;;;8.20;;
52878;SDS011;38747;53.140;6.498;2022-11-20T04:31:03;14.50;;;7.13;;
52878;SDS011;38747;53.140;6.498;2022-11-20T04:33:28;16.95;;;9.00;;
52878;SDS011;38747;53.140;6.498;2022-11-20T04:35:54;15.93;;;7.80;;
52878;SDS011;38747;53.140;6.498;2022-11-20T04:38:20;14.70;;;8.00;;
52878;SDS011;38747;53.140;6.498;2022-11-20T04:40:45;15.67;;;7.93;;
52878;SDS011;38747;53.140;6.498;2022-11-20T04:43:11;14.95;;;7.35;;
52878;SDS011;38747;53.140;6.498;2022-11-20T04:45:36;14.23;;;7.90;;
52878;SDS011;38747;53.140;6.498;2022-11-20T04:48:02;16.03;;;8.37;;
52878;SDS011;38747;53.140;6.498;2022-11-20T04:50:28;15.53;;;8.33;;
52878;SDS011;38747;53.140;6.498;2022-11-20T04:52:53;16.00;;;7.90;;
52878;SDS011;38747;53.140;6.498;2022-11-20T04:55:19;15.88;;;8.18;;
52878;SDS011;38747;53.140;6.498;2022-11-20T04:57:44;16.40;;;8.10;;
52878;SDS011;38747;53.140;6.498;2022-11-20T05:00:10;14.93;;;7.50;;
52878;SDS011;38747;53.140;6.498;2022-11-20T05:02:36;14.73;;;7.93;;
52878;SDS011;38747;53.140;6.498;2022-11-20T05:05:02;15.90;;;8.43;;
52878;SDS011;38747;53.140;6.498;2022-11-20T05:07:28;15.47;;;7.63;;
52878;SDS011;38747;53.140;6.498;2022-11-20T05:09:53;16.92;;;8.20;;
52878;SDS011;38747;53.140;6.498;2022-11-20T05:12:19;17.00;;;8.07;;
52878;SDS011;38747;53.140;6.498;2022-11-20T05:14:44;14.85;;;8.07;;
52878;SDS011;38747;53.140;6.498;2022-11-20T05:17:11;16.80;;;8.13;;
52878;SDS011;38747;53.140;6.498;2022-11-20T05:19:37;14.77;;;7.63;;
52878;SDS011;38747;53.140;6.498;2022-11-20T05:22:03;16.37;;;7.60;;
52878;SDS011;38747;53.140;6.498;2022-11-20T05:24:29;14.75;;;7.57;;
52878;SDS011;38747;53.140;6.498;2022-11-20T05:26:55;16.40;;;8.13;;
52878;SDS011;38747;53.140;6.498;2022-11-20T05:29:20;15.10;;;7.87;;
52878;SDS011;38747;53.140;6.498;2022-11-20T05:31:46;13.40;;;7.23;;
52878;SDS011;38747;53.140;6.498;2022-11-20T05:34:12;15.02;;;7.60;;
52878;SDS011;38747;53.140;6.498;2022-11-20T05:36:37;15.03;;;7.80;;
52878;SDS011;38747;53.140;6.498;2022-11-20T05:39:03;13.77;;;7.43;;
52878;SDS011;38747;53.140;6.498;2022-11-20T05:41:29;14.40;;;7.27;;
52878;SDS011;38747;53.140;6.498;2022-11-20T05:43:55;14.50;;;7.43;;
52878;SDS011;38747;53.140;6.498;2022-11-20T05:46:21;14.40;;;7.80;;
52878;SDS011;38747;53.140;6.498;2022-11-20T05:48:47;14.97;;;7.23;;
52878;SDS011;38747;53.140;6.498;2022-11-20T05:51:14;14.67;;;7.63;;
52878;SDS011;38747;53.140;6.498;2022-11-20T05:53:41;14.95;;;7.88;;
52878;SDS011;38747;53.140;6.498;2022-11-20T05:56:08;12.75;;;7.03;;
52878;SDS011;38747;53.140;6.498;2022-11-20T05:58:36;13.27;;;6.65;;
52878;SDS011;38747;53.140;6.498;2022-11-20T06:01:03;13.80;;;7.17;;
52878;SDS011;38747;53.140;6.498;2022-11-20T06:03:49;13.15;;;6.90;;
52878;SDS011;38747;53.140;6.498;2022-11-20T06:06:15;13.80;;;6.95;;
52878;SDS011;38747;53.140;6.498;2022-11-20T06:08:42;14.65;;;7.13;;
52878;SDS011;38747;53.140;6.498;2022-11-20T06:11:10;14.25;;;7.28;;
52878;SDS011;38747;53.140;6.498;2022-11-20T06:13:37;14.63;;;7.00;;
52878;SDS011;38747;53.140;6.498;2022-11-20T06:16:03;14.05;;;7.20;;
52878;SDS011;38747;53.140;6.498;2022-11-20T06:18:29;12.45;;;6.68;;
52878;SDS011;38747;53.140;6.498;2022-11-20T06:20:59;13.25;;;7.05;;
52878;SDS011;38747;53.140;6.498;2022-11-20T06:23:30;13.75;;;7.10;;
52878;SDS011;38747;53.140;6.498;2022-11-20T06:25:56;13.70;;;7.00;;
52878;SDS011;38747;53.140;6.498;2022-11-20T06:28:25;13.32;;;6.70;;
52878;SDS011;38747;53.140;6.498;2022-11-20T06:30:51;13.13;;;6.70;;
52878;SDS011;38747;53.140;6.498;2022-11-20T06:33:16;13.97;;;7.03;;
52878;SDS011;38747;53.140;6.498;2022-11-20T06:35:42;12.60;;;6.37;;
52878;SDS011;38747;53.140;6.498;2022-11-20T06:38:08;13.23;;;6.93;;
52878;SDS011;38747;53.140;6.498;2022-11-20T06:40:33;14.27;;;7.07;;
52878;SDS011;38747;53.140;6.498;2022-11-20T06:42:59;12.38;;;6.85;;
52878;SDS011;38747;53.140;6.498;2022-11-20T06:45:24;12.77;;;6.40;;
52878;SDS011;38747;53.140;6.498;2022-11-20T06:47:50;12.30;;;6.80;;
52878;SDS011;38747;53.140;6.498;2022-11-20T06:50:15;12.57;;;6.90;;
52878;SDS011;38747;53.140;6.498;2022-11-20T06:52:41;13.67;;;6.60;;
52878;SDS011;38747;53.140;6.498;2022-11-20T06:55:07;13.23;;;7.10;;
52878;SDS011;38747;53.140;6.498;2022-11-20T06:57:32;12.82;;;6.70;;
52878;SDS011;38747;53.140;6.498;2022-11-20T06:59:58;13.00;;;6.50;;
52878;SDS011;38747;53.140;6.498;2022-11-20T07:02:23;13.15;;;6.97;;
52878;SDS011;38747;53.140;6.498;2022-11-20T07:04:49;13.27;;;6.77;;
52878;SDS011;38747;53.140;6.498;2022-11-20T07:07:15;12.70;;;6.38;;
52878;SDS011;38747;53.140;6.498;2022-11-20T07:09:40;14.30;;;6.90;;
52878;SDS011;38747;53.140;6.498;2022-11-20T07:12:06;12.23;;;6.50;;
52878;SDS011;38747;53.140;6.498;2022-11-20T07:14:31;12.23;;;6.50;;
52878;SDS011;38747;53.140;6.498;2022-11-20T07:16:57;14.23;;;6.67;;
52878;SDS011;38747;53.140;6.498;2022-11-20T07:19:23;11.82;;;6.22;;
52878;SDS011;38747;53.140;6.498;2022-11-20T07:21:48;13.33;;;7.13;;
52878;SDS011;38747;53.140;6.498;2022-11-20T07:24:14;13.32;;;7.22;;
52878;SDS011;38747;53.140;6.498;2022-11-20T07:26:39;13.20;;;6.80;;
52878;SDS011;38747;53.140;6.498;2022-11-20T07:29:05;13.97;;;6.50;;
52878;SDS011;38747;53.140;6.498;2022-11-20T07:31:30;12.55;;;6.80;;
52878;SDS011;38747;53.140;6.498;2022-11-20T07:33:56;14.53;;;7.00;;
52878;SDS011;38747;53.140;6.498;2022-11-20T07:36:22;12.93;;;6.50;;
52878;SDS011;38747;53.140;6.498;2022-11-20T07:38:47;15.47;;;7.13;;
52878;SDS011;38747;53.140;6.498;2022-11-20T07:41:13;14.07;;;7.03;;
52878;SDS011;38747;53.140;6.498;2022-11-20T07:43:39;14.43;;;6.82;;
52878;SDS011;38747;53.140;6.498;2022-11-20T07:46:05;12.48;;;6.78;;
52878;SDS011;38747;53.140;6.498;2022-11-20T07:48:30;15.17;;;7.20;;
52878;SDS011;38747;53.140;6.498;2022-11-20T07:50:56;14.23;;;6.97;;
52878;SDS011;38747;53.140;6.498;2022-11-20T07:53:22;15.00;;;7.22;;
52878;SDS011;38747;53.140;6.498;2022-11-20T07:55:48;13.40;;;7.07;;
52878;SDS011;38747;53.140;6.498;2022-11-20T07:58:17;12.65;;;7.00;;
52878;SDS011;38747;53.140;6.498;2022-11-20T08:00:43;14.40;;;7.40;;
52878;SDS011;38747;53.140;6.498;2022-11-20T08:03:08;13.85;;;6.95;;
52878;SDS011;38747;53.140;6.498;2022-11-20T08:05:34;13.50;;;6.80;;
52878;SDS011;38747;53.140;6.498;2022-11-20T08:08:00;12.95;;;6.53;;
52878;SDS011;38747;53.140;6.498;2022-11-20T08:10:25;11.67;;;6.50;;
52878;SDS011;38747;53.140;6.498;2022-11-20T08:12:51;14.02;;;7.13;;
52878;SDS011;38747;53.140;6.498;2022-11-20T08:15:36;11.97;;;6.23;;
52878;SDS011;38747;53.140;6.498;2022-11-20T08:18:10;11.88;;;6.10;;
52878;SDS011;38747;53.140;6.498;2022-11-20T08:20:36;12.75;;;6.80;;
52878;SDS011;38747;53.140;6.498;2022-11-20T08:23:04;12.43;;;6.20;;
52878;SDS011;38747;53.140;6.498;2022-11-20T08:25:31;12.25;;;6.25;;
52878;SDS011;38747;53.140;6.498;2022-11-20T08:27:58;13.50;;;7.00;;
52878;SDS011;38747;53.140;6.498;2022-11-20T08:30:24;13.40;;;6.60;;
52878;SDS011;38747;53.140;6.498;2022-11-20T08:32:50;13.13;;;6.50;;
52878;SDS011;38747;53.140;6.498;2022-11-20T08:35:15;13.30;;;6.53;;
52878;SDS011;38747;53.140;6.498;2022-11-20T08:37:41;13.30;;;6.22;;
52878;SDS011;38747;53.140;6.498;2022-11-20T08:40:10;14.10;;;6.80;;
52878;SDS011;38747;53.140;6.498;2022-11-20T08:42:36;13.20;;;6.68;;
52878;SDS011;38747;53.140;6.498;2022-11-20T08:45:02;14.53;;;7.17;;
52878;SDS011;38747;53.140;6.498;2022-11-20T08:47:28;15.20;;;7.55;;
52878;SDS011;38747;53.140;6.498;2022-11-20T08:49:54;14.93;;;7.35;;
52878;SDS011;38747;53.140;6.498;2022-11-20T08:52:19;13.73;;;6.80;;
52878;SDS011;38747;53.140;6.498;2022-11-20T08:54:45;13.75;;;6.78;;
52878;SDS011;38747;53.140;6.498;2022-11-20T08:57:11;12.40;;;6.75;;
52878;SDS011;38747;53.140;6.498;2022-11-20T08:59:37;13.10;;;6.67;;
52878;SDS011;38747;53.140;6.498;2022-11-20T09:02:02;13.60;;;6.67;;
52878;SDS011;38747;53.140;6.498;2022-11-20T09:04:28;12.40;;;6.63;;
52878;SDS011;38747;53.140;6.498;2022-11-20T09:06:53;12.83;;;6.43;;
52878;SDS011;38747;53.140;6.498;2022-11-20T09:09:19;11.90;;;6.28;;
52878;SDS011;38747;53.140;6.498;2022-11-20T09:11:45;12.83;;;6.50;;
52878;SDS011;38747;53.140;6.498;2022-11-20T09:14:11;12.30;;;6.20;;
52878;SDS011;38747;53.140;6.498;2022-11-20T09:16:36;11.77;;;6.57;;
52878;SDS011;38747;53.140;6.498;2022-11-20T09:19:02;11.82;;;6.20;;
52878;SDS011;38747;53.140;6.498;2022-11-20T09:21:28;11.60;;;6.20;;
52878;SDS011;38747;53.140;6.498;2022-11-20T09:23:56;12.07;;;5.90;;
52878;SDS011;38747;53.140;6.498;2022-11-20T09:26:22;12.87;;;5.87;;
52878;SDS011;38747;53.140;6.498;2022-11-20T09:28:48;11.75;;;6.20;;
52878;SDS011;38747;53.140;6.498;2022-11-20T09:31:24;12.80;;;6.05;;
52878;SDS011;38747;53.140;6.498;2022-11-20T09:33:51;12.70;;;6.20;;
52878;SDS011;38747;53.140;6.498;2022-11-20T09:36:17;11.57;;;5.90;;
52878;SDS011;38747;53.140;6.498;2022-11-20T09:38:44;12.27;;;5.70;;
52878;SDS011;38747;53.140;6.498;2022-11-20T09:41:19;10.10;;;5.40;;
52878;SDS011;38747;53.140;6.498;2022-11-20T09:46:55;14.05;;;5.63;;
52878;SDS011;38747;53.140;6.498;2022-11-20T09:55:33;12.40;;;5.70;;
52878;SDS011;38747;53.140;6.498;2022-11-20T09:58:01;12.60;;;5.90;;
52878;SDS011;38747;53.140;6.498;2022-11-20T10:00:31;11.43;;;6.28;;
52878;SDS011;38747;53.140;6.498;2022-11-20T10:03:01;12.45;;;6.45;;
52878;SDS011;38747;53.140;6.498;2022-11-20T10:05:43;13.93;;;5.88;;
52878;SDS011;38747;53.140;6.498;2022-11-20T10:08:15;12.68;;;6.25;;
52878;SDS011;38747;53.140;6.498;2022-11-20T10:10:56;11.80;;;6.20;;
52878;SDS011;38747;53.140;6.498;2022-11-20T10:19:23;11.48;;;5.93;;
52878;SDS011;38747;53.140;6.498;2022-11-20T10:25:06;11.50;;;6.17;;
52878;SDS011;38747;53.140;6.498;2022-11-20T10:27:53;11.40;;;5.60;;
52878;SDS011;38747;53.140;6.498;2022-11-20T10:30:43;12.63;;;6.28;;
52878;SDS011;38747;53.140;6.498;2022-11-20T10:33:16;12.27;;;5.93;;
52878;SDS011;38747;53.140;6.498;2022-11-20T10:35:50;11.02;;;5.68;;
52878;SDS011;38747;53.140;6.498;2022-11-20T10:38:20;12.43;;;6.10;;
52878;SDS011;38747;53.140;6.498;2022-11-20T10:40:57;11.88;;;5.88;;
52878;SDS011;38747;53.140;6.498;2022-11-20T10:43:44;11.82;;;6.03;;
52878;SDS011;38747;53.140;6.498;2022-11-20T10:46:15;12.20;;;5.60;;
52878;SDS011;38747;53.140;6.498;2022-11-20T10:48:44;11.93;;;5.68;;
52878;SDS011;38747;53.140;6.498;2022-11-20T10:57:00;13.93;;;5.47;;
52878;SDS011;38747;53.140;6.498;2022-11-20T11:02:47;11.52;;;6.18;;
52878;SDS011;38747;53.140;6.498;2022-11-20T11:07:49;13.45;;;5.93;;
52878;SDS011;38747;53.140;6.498;2022-11-20T11:13:18;11.85;;;5.93;;
52878;SDS011;38747;53.140;6.498;2022-11-20T11:15:48;10.75;;;5.60;;
52878;SDS011;38747;53.140;6.498;2022-11-20T11:18:35;11.10;;;5.57;;
52878;SDS011;38747;53.140;6.498;2022-11-20T11:21:02;12.27;;;5.80;;
52878;SDS011;38747;53.140;6.498;2022-11-20T11:25:58;11.35;;;6.00;;
52878;SDS011;38747;53.140;6.498;2022-11-20T11:28:25;11.07;;;5.40;;
52878;SDS011;38747;53.140;6.498;2022-11-20T11:30:52;11.13;;;5.93;;
52878;SDS011;38747;53.140;6.498;2022-11-20T11:35:52;11.65;;;5.38;;
52878;SDS011;38747;53.140;6.498;2022-11-20T11:38:28;11.68;;;5.32;;
52878;SDS011;38747;53.140;6.498;2022-11-20T11:41:01;13.07;;;5.97;;
52878;SDS011;38747;53.140;6.498;2022-11-20T11:43:30;10.57;;;5.70;;
52878;SDS011;38747;53.140;6.498;2022-11-20T11:51:34;9.93;;;5.32;;
52878;SDS011;38747;53.140;6.498;2022-11-20T11:54:30;9.50;;;4.03;;
52878;SDS011;38747;53.140;6.498;2022-11-20T11:57:05;9.43;;;4.50;;
52878;SDS011;38747;53.140;6.498;2022-11-20T11:59:49;8.50;;;3.88;;
52878;SDS011;38747;53.140;6.498;2022-11-20T12:04:54;8.57;;;4.22;;
52878;SDS011;38747;53.140;6.498;2022-11-20T12:10:14;8.95;;;4.18;;
52878;SDS011;38747;53.140;6.498;2022-11-20T12:13:12;9.02;;;4.30;;
52878;SDS011;38747;53.140;6.498;2022-11-20T12:15:46;7.65;;;3.60;;
52878;SDS011;38747;53.140;6.498;2022-11-20T12:18:19;7.72;;;3.25;;
52878;SDS011;38747;53.140;6.498;2022-11-20T12:41:04;10.15;;;3.70;;
52878;SDS011;38747;53.140;6.498;2022-11-20T12:44:12;7.38;;;3.67;;
52878;SDS011;38747;53.140;6.498;2022-11-20T12:47:22;8.23;;;3.97;;
52878;SDS011;38747;53.140;6.498;2022-11-20T12:50:01;7.67;;;3.53;;
52878;SDS011;38747;53.140;6.498;2022-11-20T12:55:23;9.23;;;4.13;;
52878;SDS011;38747;53.140;6.498;2022-11-20T12:57:57;7.70;;;3.67;;
52878;SDS011;38747;53.140;6.498;2022-11-20T13:00:29;7.53;;;3.92;;
52878;SDS011;38747;53.140;6.498;2022-11-20T13:05:41;8.73;;;3.78;;
52878;SDS011;38747;53.140;6.498;2022-11-20T13:08:18;8.10;;;3.90;;
52878;SDS011;38747;53.140;6.498;2022-11-20T13:14:04;8.73;;;4.53;;
52878;SDS011;38747;53.140;6.498;2022-11-20T13:17:17;8.47;;;4.10;;
52878;SDS011;38747;53.140;6.498;2022-11-20T13:19:52;9.52;;;4.50;;
52878;SDS011;38747;53.140;6.498;2022-11-20T13:22:42;9.43;;;4.70;;
52878;SDS011;38747;53.140;6.498;2022-11-20T13:27:58;9.88;;;4.82;;
52878;SDS011;38747;53.140;6.498;2022-11-20T13:30:26;11.10;;;5.00;;
52878;SDS011;38747;53.140;6.498;2022-11-20T13:33:02;10.43;;;4.75;;
52878;SDS011;38747;53.140;6.498;2022-11-20T13:35:33;9.60;;;4.45;;
52878;SDS011;38747;53.140;6.498;2022-11-20T13:38:07;10.15;;;4.40;;
52878;SDS011;38747;53.140;6.498;2022-11-20T13:40:38;9.48;;;4.68;;
52878;SDS011;38747;53.140;6.498;2022-11-20T13:43:35;9.93;;;4.53;;
52878;SDS011;38747;53.140;6.498;2022-11-20T13:46:05;9.27;;;4.40;;
52878;SDS011;38747;53.140;6.498;2022-11-20T13:48:39;9.25;;;4.65;;
52878;SDS011;38747;53.140;6.498;2022-11-20T14:01:34;9.93;;;5.03;;
52878;SDS011;38747;53.140;6.498;2022-11-20T14:04:05;10.03;;;4.80;;
52878;SDS011;38747;53.140;6.498;2022-11-20T14:06:43;10.13;;;4.85;;
52878;SDS011;38747;53.140;6.498;2022-11-20T14:09:11;11.48;;;5.78;;
52878;SDS011;38747;53.140;6.498;2022-11-20T14:11:49;10.18;;;5.15;;
52878;SDS011;38747;53.140;6.498;2022-11-20T14:14:18;10.53;;;6.03;;
52878;SDS011;38747;53.140;6.498;2022-11-20T14:16:45;9.93;;;5.45;;
52878;SDS011;38747;53.140;6.498;2022-11-20T14:22:10;9.68;;;4.95;;
52878;SDS011;38747;53.140;6.498;2022-11-20T14:24:46;15.57;;;5.17;;
52878;SDS011;38747;53.140;6.498;2022-11-20T14:27:18;10.20;;;5.30;;
52878;SDS011;38747;53.140;6.498;2022-11-20T14:29:46;10.63;;;5.60;;
52878;SDS011;38747;53.140;6.498;2022-11-20T14:32:17;10.98;;;5.45;;
52878;SDS011;38747;53.140;6.498;2022-11-20T14:34:44;10.57;;;6.05;;
52878;SDS011;38747;53.140;6.498;2022-11-20T14:37:16;10.97;;;5.90;;
52878;SDS011;38747;53.140;6.498;2022-11-20T14:39:49;10.85;;;5.80;;
52878;SDS011;38747;53.140;6.498;2022-11-20T14:42:21;10.25;;;5.35;;
52878;SDS011;38747;53.140;6.498;2022-11-20T14:44:48;10.45;;;5.22;;
52878;SDS011;38747;53.140;6.498;2022-11-20T14:47:17;11.82;;;5.55;;
52878;SDS011;38747;53.140;6.498;2022-11-20T14:49:45;10.10;;;5.20;;
52878;SDS011;38747;53.140;6.498;2022-11-20T14:52:16;12.02;;;5.78;;
52878;SDS011;38747;53.140;6.498;2022-11-20T14:54:53;10.15;;;5.07;;
52878;SDS011;38747;53.140;6.498;2022-11-20T14:57:22;10.40;;;5.10;;
52878;SDS011;38747;53.140;6.498;2022-11-20T15:02:43;12.47;;;7.30;;
52878;SDS011;38747;53.140;6.498;2022-11-20T15:05:11;13.18;;;8.00;;
52878;SDS011;38747;53.140;6.498;2022-11-20T15:07:39;11.82;;;5.97;;
52878;SDS011;38747;53.140;6.498;2022-11-20T15:10:11;12.23;;;6.80;;
52878;SDS011;38747;53.140;6.498;2022-11-20T15:15:21;11.90;;;6.50;;
52878;SDS011;38747;53.140;6.498;2022-11-20T15:17:56;13.50;;;6.05;;
52878;SDS011;38747;53.140;6.498;2022-11-20T15:20:24;12.45;;;6.95;;
52878;SDS011;38747;53.140;6.498;2022-11-20T15:22:53;11.35;;;6.50;;
52878;SDS011;38747;53.140;6.498;2022-11-20T15:25:18;12.43;;;6.20;;
52878;SDS011;38747;53.140;6.498;2022-11-20T15:27:44;13.07;;;7.20;;
52878;SDS011;38747;53.140;6.498;2022-11-20T15:30:14;13.07;;;8.20;;
52878;SDS011;38747;53.140;6.498;2022-11-20T15:32:42;13.07;;;6.93;;
52878;SDS011;38747;53.140;6.498;2022-11-20T15:35:09;10.32;;;5.55;;
52878;SDS011;38747;53.140;6.498;2022-11-20T15:37:37;13.85;;;6.40;;
52878;SDS011;38747;53.140;6.498;2022-11-20T15:40:03;12.10;;;6.20;;
52878;SDS011;38747;53.140;6.498;2022-11-20T15:42:30;11.57;;;5.95;;
52878;SDS011;38747;53.140;6.498;2022-11-20T15:44:55;11.13;;;5.77;;
52878;SDS011;38747;53.140;6.498;2022-11-20T15:47:23;13.60;;;5.60;;
52878;SDS011;38747;53.140;6.498;2022-11-20T15:49:52;11.65;;;6.28;;
52878;SDS011;38747;53.140;6.498;2022-11-20T15:52:18;14.32;;;8.40;;
52878;SDS011;38747;53.140;6.498;2022-11-20T15:54:44;12.43;;;6.80;;
52878;SDS011;38747;53.140;6.498;2022-11-20T15:57:09;14.33;;;7.00;;
52878;SDS011;38747;53.140;6.498;2022-11-20T15:59:35;12.55;;;6.53;;
52878;SDS011;38747;53.140;6.498;2022-11-20T16:02:08;13.75;;;6.68;;
52878;SDS011;38747;53.140;6.498;2022-11-20T16:04:38;12.37;;;6.37;;
52878;SDS011;38747;53.140;6.498;2022-11-20T16:07:03;12.82;;;6.57;;
52878;SDS011;38747;53.140;6.498;2022-11-20T16:09:29;13.68;;;7.05;;
52878;SDS011;38747;53.140;6.498;2022-11-20T16:11:55;13.13;;;7.03;;
52878;SDS011;38747;53.140;6.498;2022-11-20T16:14:23;13.70;;;7.10;;
52878;SDS011;38747;53.140;6.498;2022-11-20T16:17:07;12.98;;;6.18;;
52878;SDS011;38747;53.140;6.498;2022-11-20T16:19:32;13.13;;;7.80;;
52878;SDS011;38747;53.140;6.498;2022-11-20T16:21:58;14.15;;;7.40;;
52878;SDS011;38747;53.140;6.498;2022-11-20T16:24:26;13.23;;;6.93;;
52878;SDS011;38747;53.140;6.498;2022-11-20T16:26:52;13.27;;;6.53;;